Terminal Aerodrome Forecast
Issued by NWS

Home | Current Version | Previous Version | Text Only | Print | Product List | Glossary On
Versions: 1 2 3 4 5 6 7 8 9 10 11 12 13 14 15 16 17 18 19 20 21 22 23 24 25 26
000
FTUS45 KREV 301100
TAFTRK
TAF
KTRK 301129Z 3012/0112 00000KT 1/2SM FG VV002
     FM301600 VRB03KT P6SM FEW180
     FM301900 31010KT P6SM FEW060 SCT180
     FM010300 VRB04KT P6SM SKC
     FM010800 00000KT 1/2SM FG VV002=

USA.gov is the U.S. government's official web portal to all federal, state and local government web resources and services.